Time;durP1;ratioP1;P1;durP2;ratioP2;P2;SDS_P1;SDS_P2;PMS_P1;PMS_P2;Temp;Humidity;BMP_temperature;BMP_pressure;BME280_temperature;BME280_humidity;BME280_pressure;Samples;Min_cycle;Max_cycle;Signal;HPM_P1;HPM_P2
2022/05/07 00:01:49;;;;;;;;;;;;;;;-143.79;100.00;62634.88;5074548;28;20322;-55
2022/05/07 00:04:15;;;;;;;;;;;;;;;-143.79;100.00;62634.88;5074442;28;19921;-56
2022/05/07 00:06:41;;;;;;;;;;;;;;;-143.79;100.00;62634.88;5074497;28;19923;-54
2022/05/07 00:09:07;;;;;;;;;;;;;;;-143.79;100.00;62634.88;5074455;28;19924;-56
2022/05/07 00:11:33;;;;;;;;;;;;;;;-143.79;100.00;62634.88;5074392;28;20409;-55
2022/05/07 00:13:59;;;;;;;;;;;;;;;-143.79;100.00;62634.88;5074370;28;19916;-55
2022/05/07 00:19:09;;;;;;;;;;;21.00;88.20;;;-143.79;100.00;62634.88;5074261;28;20290;-55
2022/05/07 00:21:35;;;;;;;;;;;;;;;-143.79;100.00;62634.88;5074067;28;19916;-55
2022/05/07 00:24:03;;;;;;;;;;;;;;;-143.79;100.00;62634.88;5074157;28;19927;-55
2022/05/07 00:26:29;;;;;;;;;;;;;;;-143.79;100.00;62634.88;5073991;28;19920;-56
2022/05/07 00:28:55;;;;;;;;;;;;;;;-143.79;100.00;62634.88;5074020;28;19948;-55
2022/05/07 00:31:21;;;;;;;;;;;;;;;-143.79;100.00;62634.88;5073984;28;20417;-55
2022/05/07 00:33:47;;;;;;;;;;;;;;;-143.79;100.00;62634.88;5073999;28;20428;-55
2022/05/07 00:36:13;;;;;;;;;;;;;;;-143.79;100.00;62634.88;5073915;28;20009;-55
2022/05/07 00:38:38;;;;;;;;;;;;;;;-143.79;100.00;62634.88;5073643;28;19974;-54
2022/05/07 00:41:04;;;;;;;;;;;20.90;90.40;;;-143.79;100.00;62634.88;5073783;28;19916;-55
2022/05/07 00:43:36;;;;;;;;;;;;;;;-143.79;100.00;62634.88;5073942;28;19916;-55
2022/05/07 00:46:02;;;;;;;;;;;20.90;90.50;;;-143.79;100.00;62634.88;5073939;28;19924;-53
2022/05/07 00:48:28;;;;;;;;;;;20.90;90.20;;;-143.79;100.00;62634.88;5073640;28;19917;-56
2022/05/07 00:53:39;;;;;;;;;;;;;;;-143.79;100.00;62634.88;5073679;28;20069;-58
2022/05/07 00:56:05;;;;;;;;;;;;;;;-143.79;100.00;62634.88;5073511;28;19924;-58
2022/05/07 00:58:31;;;;;;;;;;;;;;;-143.79;100.00;62634.88;5055469;28;19921;-58
2022/05/07 01:00:57;;;;;;;;;;;;;;;-143.79;100.00;62634.88;5073271;28;19920;-58
2022/05/07 01:03:23;;;;;;;;;;;;;;;-143.79;100.00;62634.88;5073548;28;20038;-58
2022/05/07 01:05:49;;;;;;;;;;;;;;;-143.79;100.00;62634.88;5073300;28;19982;-58
2022/05/07 01:08:15;;;;;;;;;;;;;;;-143.79;100.00;62634.88;5073063;28;20449;-58
2022/05/07 01:10:41;;;;;;;;;;;;;;;-143.79;100.00;62634.88;5055401;28;19967;-58
2022/05/07 01:13:07;;;;;;;;;;;;;;;-143.79;100.00;62634.88;5055287;28;20363;-58
2022/05/07 01:15:41;;;;;;;;;;;;;;;-143.79;100.00;62634.88;5055266;28;19928;-58
2022/05/07 01:18:07;;;;;;;;;;;;;;;-143.79;100.00;62634.88;5073142;28;19917;-58
2022/05/07 01:20:33;;;;;;;;;;;;;;;-143.79;100.00;62634.88;5072910;28;19970;-58
2022/05/07 01:23:00;;;;;;;;;;;;;;;-143.79;100.00;62634.88;5073020;28;19916;-59
2022/05/07 01:25:26;;;;;;;;;;;20.90;90.40;;;-143.79;100.00;62634.88;5073258;28;19927;-58
2022/05/07 01:27:51;;;;;;;;;;;20.80;89.50;;;-143.79;100.00;62634.88;5073225;28;19920;-58
2022/05/07 01:30:17;;;;;;;;;;;;;;;-143.79;100.00;62634.88;5073033;28;19924;-58
2022/05/07 01:32:43;;;;;;;;;;;;;;;-143.79;100.00;62634.88;5072881;28;19916;-58
2022/05/07 01:35:09;;;;;;;;;;;;;;;-143.79;100.00;62634.88;5072812;28;19920;-58
2022/05/07 01:37:35;;;;;;;;;;;;;;;-143.79;100.00;62634.88;5072614;28;20007;-58
2022/05/07 01:40:01;;;;;;;;;;;;;;;-143.79;100.00;62634.88;5072725;28;20010;-58
2022/05/07 01:42:27;;;;;;;;;;;;;;;-143.79;100.00;62634.88;5072762;28;19940;-58
2022/05/07 01:44:53;;;;;;;;;;;;;;;-143.79;100.00;62634.88;5072535;28;19917;-58
2022/05/07 01:50:04;;;;;;;;;;;;;;;-143.79;100.00;62634.88;5072636;28;20012;-59
2022/05/07 01:52:30;;;;;;;;;;;;;;;-143.79;100.00;62634.88;5054676;28;20004;-58
2022/05/07 01:54:55;;;;;;;;;;;20.70;90.30;;;-143.79;100.00;62634.88;5072547;28;20002;-58
2022/05/07 01:57:21;;;;;;;;;;;;;;;-143.79;100.00;62634.88;5072528;28;19927;-58
2022/05/07 01:59:47;;;;;;;;;;;;;;;-143.79;100.00;62634.88;5072402;28;19920;-58
2022/05/07 02:02:13;;;;;;;;;;;;;;;-143.79;100.00;62634.88;5072391;28;19929;-58
2022/05/07 02:04:39;;;;;;;;;;;;;;;-143.79;100.00;62634.88;5072516;28;19924;-58
2022/05/07 02:07:05;;;;;;;;;;;;;;;-143.79;100.00;62634.88;5072479;28;19917;-58
2022/05/07 02:09:31;;;;;;;;;;;;;;;-143.79;100.00;62634.88;5072712;28;19916;-58
2022/05/07 02:11:57;;;;;;;;;;;;;;;-143.79;100.00;62634.88;5072422;28;19918;-58
2022/05/07 02:14:23;;;;;;;;;;;;;;;-143.79;100.00;62634.88;5072367;28;19943;-58
2022/05/07 02:16:49;;;;;;;;;;;;;;;-143.79;100.00;62634.88;5072368;28;19912;-57
2022/05/07 02:19:15;;;;;;;;;;;;;;;-143.79;100.00;62634.88;5072866;28;19951;-58
2022/05/07 02:21:41;;;;;;;;;;;;;;;-143.79;100.00;62634.88;5076387;28;20373;-58
2022/05/07 02:24:07;;;;;;;;;;;;;;;-143.79;100.00;62634.88;5076514;28;19923;-58
2022/05/07 02:26:33;;;;;;;;;;;;;;;-143.79;100.00;62634.88;5076397;28;19916;-58
2022/05/07 02:28:59;;;;;;;;;;;;;;;-143.79;100.00;62634.88;5076541;28;19916;-58
2022/05/07 02:31:25;;;;;;;;;;;;;;;-143.79;100.00;62634.88;5076281;28;19927;-58
2022/05/07 02:33:51;;;;;;;;;;;;;;;-143.79;100.00;62634.88;5076223;28;19963;-58
2022/05/07 02:36:17;;;;;;;;;;;;;;;-143.79;100.00;62634.88;5076414;28;19935;-58
2022/05/07 02:38:43;;;;;;;;;;;;;;;-143.79;100.00;62634.88;5076036;28;19920;-58
2022/05/07 02:43:53;;;;;;;;;;;;;;;-143.79;100.00;62634.88;5076212;28;19923;-58
2022/05/07 02:46:19;;;;;;;;;;;20.60;88.00;;;-143.79;100.00;62634.88;5075977;28;19917;-58
2022/05/07 02:48:46;;;;;;;;;;;;;;;-143.79;100.00;62634.88;5075966;28;20288;-58
2022/05/07 02:51:12;;;;;;;;;;;;;;;-143.79;100.00;62634.88;5058123;28;19916;-58
2022/05/07 02:53:38;;;;;;;;;;;20.60;87.20;;;-143.79;100.00;62634.88;5075863;28;20412;-58
2022/05/07 02:56:04;;;;;;;;;;;20.60;90.60;;;-143.79;100.00;62634.88;5075797;28;19943;-58
2022/05/07 02:58:30;;;;;;;;;;;20.60;88.30;;;-143.79;100.00;62634.88;5075792;28;19923;-58
2022/05/07 03:00:56;;;;;;;;;;;20.60;90.50;;;-143.79;100.00;62634.88;5075648;28;20007;-57
2022/05/07 03:03:21;;;;;;;;;;;20.60;90.60;;;-143.79;100.00;62634.88;5057693;28;20406;-54
2022/05/07 03:05:47;;;;;;;;;;;20.60;87.80;;;-143.79;100.00;62634.88;5075628;28;19924;-54
2022/05/07 03:08:13;;;;;;;;;;;;;;;-143.79;100.00;62634.88;5075507;28;19917;-54
2022/05/07 03:10:39;;;;;;;;;;;;;;;-143.79;100.00;62634.88;5075499;28;19916;-55
2022/05/07 03:13:05;;;;;;;;;;;;;;;-143.79;100.00;62634.88;5075568;28;20417;-54
2022/05/07 03:15:32;;;;;;;;;;;;;;;-143.79;100.00;62634.88;5075454;28;20349;-54
2022/05/07 03:17:57;;;;;;;;;;;20.80;90.40;;;-143.79;100.00;62634.88;5075473;28;20297;-53
2022/05/07 03:20:23;;;;;;;;;;;20.80;88.70;;;-143.79;100.00;62634.88;5075498;28;19916;-54
2022/05/07 03:22:49;;;;;;;;;;;20.80;87.90;;;-143.79;100.00;62634.88;5075501;28;19957;-53
2022/05/07 03:25:15;;;;;;;;;;;;;;;-143.79;100.00;62634.88;5075461;28;19918;-49
2022/05/07 03:27:41;;;;;;;;;;;;;;;-143.79;100.00;62634.88;5075375;28;20016;-49
2022/05/07 03:30:07;;;;;;;;;;;;;;;-143.79;100.00;62634.88;5075336;28;19923;-51
2022/05/07 03:32:33;;;;;;;;;;;;;;;-143.79;100.00;62634.88;5075288;28;19917;-50
2022/05/07 03:34:59;;;;;;;;;;;20.80;87.80;;;-143.79;100.00;62634.88;5075504;28;19977;-53
2022/05/07 03:37:25;;;;;;;;;;;;;;;-143.79;100.00;62634.88;5074964;28;19973;-48
2022/05/07 03:39:52;;;;;;;;;;;;;;;-143.79;100.00;62634.88;5075196;28;19930;-49
2022/05/07 03:42:19;;;;;;;;;;;20.80;90.00;;;-143.79;100.00;62634.88;5075114;28;19966;-49
2022/05/07 03:44:48;;;;;;;;;;;20.60;88.20;;;-143.79;100.00;62634.88;5075326;28;19917;-49
2022/05/07 03:47:14;;;;;;;;;;;;;;;-143.79;100.00;62634.88;5075076;28;19917;-49
2022/05/07 03:49:39;;;;;;;;;;;20.60;90.60;;;-143.79;100.00;62634.88;5074992;28;19923;-53
2022/05/07 03:54:50;;;;;;;;;;;20.60;90.70;;;-143.79;100.00;62634.88;5075001;28;19922;-53
2022/05/07 03:57:16;;;;;;;;;;;;;;;-143.79;100.00;62634.88;5074999;28;19946;-53
2022/05/07 03:59:42;;;;;;;;;;;20.60;90.60;;;-143.79;100.00;62634.88;5074710;28;19920;-53
2022/05/07 04:02:09;;;;;;;;;;;;;;;-143.79;100.00;62634.88;5056787;28;19916;-53
2022/05/07 04:04:35;;;;;;;;;;;;;;;-143.79;100.00;62634.88;5074948;28;19992;-52
2022/05/07 04:07:01;;;;;;;;;;;20.60;90.60;;;-143.79;100.00;62634.88;5074976;28;20297;-53
2022/05/07 04:09:27;;;;;;;;;;;;;;;-143.79;100.00;62634.88;5074642;28;19962;-50
2022/05/07 04:11:53;;;;;;;;;;;;;;;-143.79;100.00;62634.88;5074618;28;19970;-49
2022/05/07 04:14:19;;;;;;;;;;;;;;;-143.79;100.00;62634.88;5074656;28;19936;-49
2022/05/07 04:16:46;;;;;;;;;;;;;;;-143.79;100.00;62634.88;5074482;28;19923;-48
2022/05/07 04:19:12;;;;;;;;;;;20.70;90.10;;;-143.79;100.00;62634.88;5074721;28;20115;-50
2022/05/07 04:21:38;;;;;;;;;;;20.60;90.60;;;-143.79;100.00;62634.88;5074306;28;20356;-49
2022/05/07 04:24:05;;;;;;;;;;;20.70;90.80;;;-143.79;100.00;62634.88;5074387;28;20025;-50
2022/05/07 04:26:31;;;;;;;;;;;;;;;-143.79;100.00;62634.88;5074203;28;20371;-50
2022/05/07 04:28:57;;;;;;;;;;;;;;;-143.79;100.00;62634.88;5074248;28;19946;-49
2022/05/07 04:31:24;;;;;;;;;;;;;;;-143.79;100.00;62634.88;5074217;28;19913;-49
2022/05/07 04:33:50;;;;;;;;;;;20.60;90.70;;;-143.79;100.00;62634.88;5074258;28;20399;-50
2022/05/07 04:36:16;;;;;;;;;;;20.60;90.80;;;-143.79;100.00;62634.88;5074028;28;19939;-49
2022/05/07 04:38:42;;;;;;;;;;;20.60;90.70;;;-143.79;100.00;62634.88;5073867;28;19970;-48
2022/05/07 04:41:07;;;;;;;;;;;20.60;89.10;;;-143.79;100.00;62634.88;5073888;28;19924;-50
2022/05/07 04:43:33;;;;;;;;;;;;;;;-143.79;100.00;62634.88;5073423;28;19920;-48
2022/05/07 04:45:59;;;;;;;;;;;;;;;-143.79;100.00;62634.88;5073871;28;19916;-49
2022/05/07 04:48:25;;;;;;;;;;;;;;;-143.79;100.00;62634.88;5073860;28;19927;-49
2022/05/07 04:50:51;;;;;;;;;;;;;;;-143.79;100.00;62634.88;5073883;28;19970;-50
2022/05/07 04:53:17;;;;;;;;;;;;;;;-143.79;100.00;62634.88;5074069;28;20520;-48
2022/05/07 04:55:43;;;;;;;;;;;;;;;-143.79;100.00;62634.88;5073687;28;19946;-50
2022/05/07 04:58:08;;;;;;;;;;;20.50;90.90;;;-143.79;100.00;62634.88;5073692;28;19917;-49
2022/05/07 05:00:34;;;;;;;;;;;20.50;90.60;;;-143.79;100.00;62634.88;5073553;28;19923;-49
2022/05/07 05:02:59;;;;;;;;;;;20.70;90.70;;;-143.79;100.00;62634.88;5073479;28;20311;-49
2022/05/07 05:05:25;;;;;;;;;;;;;;;-143.79;100.00;62634.88;5073516;28;20002;-47
2022/05/07 05:07:51;;;;;;;;;;;;;;;-143.79;100.00;62634.88;5073495;28;20316;-48
2022/05/07 05:10:18;;;;;;;;;;;;;;;-143.79;100.00;62634.88;5073555;28;19917;-48
2022/05/07 05:12:44;;;;;;;;;;;;;;;-143.79;100.00;62634.88;5073585;28;20285;-48
2022/05/07 05:15:10;;;;;;;;;;;20.50;90.00;;;-143.79;100.00;62634.88;5073359;28;19916;-49
2022/05/07 05:17:37;;;;;;;;;;;;;;;-143.79;100.00;62634.88;5073574;28;19912;-48
2022/05/07 05:20:03;;;;;;;;;;;;;;;-143.79;100.00;62634.88;5073439;28;19916;-49
2022/05/07 05:22:29;;;;;;;;;;;20.50;89.10;;;-143.79;100.00;62634.88;5073059;28;19970;-49
2022/05/07 05:24:55;;;;;;;;;;;;;;;-143.79;100.00;62634.88;5073018;28;19916;-50
2022/05/07 05:27:21;;;;;;;;;;;;;;;-143.79;100.00;62634.88;5073330;28;19922;-49
2022/05/07 05:29:47;;;;;;;;;;;;;;;-143.79;100.00;62634.88;5073033;28;20336;-50
2022/05/07 05:32:17;;;;;;;;;;;;;;;-143.79;100.00;62634.88;5073275;28;20294;-49
2022/05/07 05:34:47;;;;;;;;;;;;;;;-143.79;100.00;62634.88;5072867;28;19916;-51
2022/05/07 05:37:14;;;;;;;;;;;;;;;-143.79;100.00;62634.88;5073020;28;19973;-49
2022/05/07 05:39:39;;;;;;;;;;;20.50;90.80;;;-143.79;100.00;62634.88;5072809;28;20367;-49
2022/05/07 05:42:05;;;;;;;;;;;;;;;-143.79;100.00;62634.88;5072770;28;19959;-49
2022/05/07 05:44:33;;;;;;;;;;;;;;;-143.79;100.00;62634.88;5072762;28;20370;-48
2022/05/07 05:46:59;;;;;;;;;;;;;;;-143.79;100.00;62634.88;5054803;28;20082;-49
2022/05/07 05:49:25;;;;;;;;;;;;;;;-143.79;100.00;62634.88;5072706;28;19920;-49
2022/05/07 05:51:51;;;;;;;;;;;20.50;88.90;;;-143.79;100.00;62634.88;5072764;28;20011;-50
2022/05/07 05:54:17;;;;;;;;;;;;;;;-143.79;100.00;62634.88;5071918;28;20410;-49
2022/05/07 05:56:43;;;;;;;;;;;;;;;-143.79;100.00;62634.88;5072682;28;19916;-50
2022/05/07 05:59:09;;;;;;;;;;;;;;;-143.79;100.00;62634.88;5072609;28;19966;-51
2022/05/07 06:01:35;;;;;;;;;;;;;;;-143.79;100.00;62634.88;5072446;28;20395;-50
2022/05/07 06:04:01;;;;;;;;;;;;;;;-143.79;100.00;62634.88;5072613;28;20440;-48
2022/05/07 06:06:27;;;;;;;;;;;;;;;-143.79;100.00;62634.88;5072652;28;19969;-50
2022/05/07 06:08:53;;;;;;;;;;;;;;;-143.79;100.00;62634.88;5072447;28;19919;-49
2022/05/07 06:11:19;;;;;;;;;;;;;;;-143.79;100.00;62634.88;5072560;28;19916;-49
2022/05/07 06:13:46;;;;;;;;;;;;;;;-143.79;100.00;62634.88;5072575;28;20003;-50
2022/05/07 06:16:11;;;;;;;;;;;20.60;90.80;;;-143.79;100.00;62634.88;5072728;28;20419;-49
2022/05/07 06:18:37;;;;;;;;;;;;;;;-143.79;100.00;62634.88;5072806;28;20024;-51
2022/05/07 06:21:03;;;;;;;;;;;;;;;-143.79;100.00;62634.88;5072386;28;19923;-51
2022/05/07 06:23:30;;;;;;;;;;;;;;;-143.79;100.00;62634.88;5072813;28;20011;-54
2022/05/07 06:28:40;;;;;;;;;;;;;;;-143.79;100.00;62634.88;5072531;28;20028;-54
2022/05/07 06:31:05;;;;;;;;;;;20.70;89.30;;;-143.79;100.00;62634.88;5072400;28;19978;-55
2022/05/07 06:33:32;;;;;;;;;;;;;;;-143.79;100.00;62634.88;5072446;28;19924;-53
2022/05/07 06:35:58;;;;;;;;;;;20.70;90.70;;;-143.79;100.00;62634.88;5072627;28;19928;-54
2022/05/07 06:38:23;;;;;;;;;;;20.80;88.20;;;-143.79;100.00;62634.88;5072150;28;19920;-52
2022/05/07 06:40:50;;;;;;;;;;;;;;;-143.79;100.00;62634.88;5072495;28;20382;-54
2022/05/07 06:43:16;;;;;;;;;;;;;;;-143.79;100.00;62634.88;5072367;28;20435;-53
2022/05/07 06:45:42;;;;;;;;;;;20.70;90.70;;;-143.79;100.00;62634.88;5072347;28;19955;-50
2022/05/07 06:48:11;;;;;;;;;;;;;;;-143.79;100.00;62634.88;5072194;28;19916;-51
2022/05/07 06:50:37;;;;;;;;;;;;;;;-143.79;100.00;62634.88;5072523;28;19923;-51
2022/05/07 06:53:03;;;;;;;;;;;;;;;-143.79;100.00;62634.88;5072459;28;20354;-50
2022/05/07 06:55:32;;;;;;;;;;;;;;;-143.79;100.00;62634.88;5072436;28;19916;-51
2022/05/07 06:57:58;;;;;;;;;;;20.80;89.60;;;-143.79;100.00;62634.88;5072174;28;19916;-50
2022/05/07 07:00:24;;;;;;;;;;;20.80;90.80;;;-143.79;100.00;62634.88;5072127;28;20326;-55
2022/05/07 07:02:50;;;;;;;;;;;20.80;90.70;;;-143.79;100.00;62634.88;5072091;28;19921;-51
2022/05/07 07:05:16;;;;;;;;;;;20.80;90.70;;;-143.79;100.00;62634.88;5072443;28;19923;-52
2022/05/07 07:07:42;;;;;;;;;;;;;;;-143.79;100.00;62634.88;5075787;28;19973;-52
2022/05/07 07:10:08;;;;;;;;;;;21.00;90.90;;;-143.79;100.00;62634.88;5076058;28;19912;-52
2022/05/07 07:12:40;;;;;;;;;;;20.80;90.90;;;-143.79;100.00;62634.88;5075809;28;19916;-51
2022/05/07 07:15:08;;;;;;;;;;;21.00;90.80;;;-143.79;100.00;62634.88;5075695;28;19920;-54
2022/05/07 07:17:34;;;;;;;;;;;20.80;90.80;;;-143.79;100.00;62634.88;5075635;28;19923;-50
2022/05/07 07:19:59;;;;;;;;;;;20.90;90.90;;;-143.79;100.00;62634.88;5075617;28;19924;-52
2022/05/07 07:22:25;;;;;;;;;;;;;;;-143.79;100.00;62634.88;5075551;28;20327;-53
2022/05/07 07:24:51;;;;;;;;;;;;;;;-143.79;100.00;62634.88;5075591;28;19984;-53
2022/05/07 07:27:17;;;;;;;;;;;;;;;-143.79;100.00;62634.88;5075462;28;20030;-50
2022/05/07 07:29:47;;;;;;;;;;;;;;;-143.79;100.00;62634.88;5075770;28;19916;-52
2022/05/07 07:32:13;;;;;;;;;;;;;;;-143.79;100.00;62634.88;5075229;28;19913;-51
2022/05/07 07:34:39;;;;;;;;;;;;;;;-143.79;100.00;62634.88;5075285;28;19917;-54
2022/05/07 07:37:05;;;;;;;;;;;;;;;-143.79;100.00;62634.88;5075164;28;20007;-52
2022/05/07 07:39:32;;;;;;;;;;;;;;;-143.79;100.00;62634.88;5075182;28;19971;-53
2022/05/07 07:41:58;;;;;;;;;;;21.10;90.60;;;-143.79;100.00;62634.88;5075106;28;19916;-51
2022/05/07 07:44:26;;;;;;;;;;;21.10;90.40;;;-143.79;100.00;62634.88;5075059;28;20293;-50
2022/05/07 07:49:36;;;;;;;;;;;21.20;90.10;;;-143.79;100.00;62634.88;5075371;28;19962;-51
2022/05/07 07:52:02;;;;;;;;;;;21.20;90.00;;;-143.79;100.00;62634.88;5057161;28;19928;-51
2022/05/07 07:54:27;;;;;;;;;;;21.30;90.70;;;-143.79;100.00;62634.88;5075027;28;19916;-50
2022/05/07 07:56:55;;;;;;;;;;;;;;;-143.79;100.00;62634.88;5074906;28;19978;-51
2022/05/07 07:59:20;;;;;;;;;;;21.40;90.60;;;-143.79;100.00;62634.88;5074790;28;19923;-50
2022/05/07 08:01:46;;;;;;;;;;;21.40;90.10;;;-143.79;100.00;62634.88;5074869;28;20295;-50
2022/05/07 08:04:12;;;;;;;;;;;;;;;-143.79;100.00;62634.88;5074590;28;19921;-52
2022/05/07 08:06:37;;;;;;;;;;;21.50;90.70;;;-143.79;100.00;62634.88;5074823;28;19924;-50
2022/05/07 08:11:49;;;;;;;;;;;21.50;90.20;;;-143.79;100.00;62634.88;5074474;28;19962;-50
2022/05/07 08:14:15;;;;;;;;;;;;;;;-143.79;100.00;62634.88;5074866;28;19916;-50
2022/05/07 08:16:41;;;;;;;;;;;;;;;-143.79;100.00;62634.88;5074047;28;20402;-50
2022/05/07 08:19:07;;;;;;;;;;;;;;;-143.79;100.00;62634.88;5074161;28;19962;-52
2022/05/07 08:21:33;;;;;;;;;;;;;;;-143.79;100.00;62634.88;5074428;28;19916;-50
2022/05/07 08:23:59;;;;;;;;;;;;;;;-143.79;100.00;62634.88;5074106;28;19916;-53
2022/05/07 08:26:26;;;;;;;;;;;;;;;-143.79;100.00;62634.88;5074015;28;20263;-53
2022/05/07 08:28:52;;;;;;;;;;;;;;;-143.79;100.00;62634.88;5074016;28;19955;-50
2022/05/07 08:31:21;;;;;;;;;;;;;;;-143.79;100.00;62634.88;5073876;28;19912;-53
2022/05/07 08:33:47;;;;;;;;;;;;;;;-143.79;100.00;62634.88;5073881;28;19917;-54
2022/05/07 08:36:13;;;;;;;;;;;;;;;-143.79;100.00;62634.88;5073747;28;19924;-54
2022/05/07 08:38:39;;;;;;;;;;;;;;;-143.79;100.00;62634.88;5073474;28;19974;-52
2022/05/07 08:41:06;;;;;;;;;;;21.80;89.70;;;-143.79;100.00;62634.88;5073890;28;19969;-54
2022/05/07 08:43:33;;;;;;;;;;;21.90;88.70;;;-143.79;100.00;62634.88;5073967;28;20418;-54
2022/05/07 08:45:59;;;;;;;;;;;;;;;-143.79;100.00;62634.88;5074055;28;20303;-54
2022/05/07 08:48:25;;;;;;;;;;;;;;;-143.79;100.00;62634.88;5055910;28;19920;-52
2022/05/07 08:50:53;;;;;;;;;;;;;;;-143.79;100.00;62634.88;5055830;28;19969;-52
2022/05/07 08:53:20;;;;;;;;;;;;;;;-143.79;100.00;62634.88;5073499;28;19940;-51
2022/05/07 08:55:51;;;;;;;;;;;21.90;89.70;;;-143.79;100.00;62634.88;5055681;28;20298;-51
2022/05/07 08:58:17;;;;;;;;;;;;;;;-143.79;100.00;62634.88;5073434;28;20078;-52
2022/05/07 09:00:45;;;;;;;;;;;;;;;-143.79;100.00;62634.88;5073409;28;20414;-51
2022/05/07 09:03:14;;;;;;;;;;;22.40;89.60;;;-143.79;100.00;62634.88;5073392;28;19916;-51
2022/05/07 09:05:41;;;;;;;;;;;;;;;-143.79;100.00;62634.88;5073364;28;20282;-52
2022/05/07 09:08:07;;;;;;;;;;;;;;;-143.79;100.00;62634.88;5073348;28;19917;-53
2022/05/07 09:10:34;;;;;;;;;;;;;;;-143.79;100.00;62634.88;5073327;28;20386;-52
2022/05/07 09:13:09;;;;;;;;;;;;;;;-143.79;100.00;62634.88;5055379;28;20382;-54
2022/05/07 09:15:36;;;;;;;;;;;;;;;-143.79;100.00;62634.88;5073164;28;19955;-54
2022/05/07 09:18:12;;;;;;;;;;;22.20;87.50;;;-143.79;100.00;62634.88;5073090;28;19959;-55
2022/05/07 09:20:38;;;;;;;;;;;;;;;-143.79;100.00;62634.88;5072995;28;20232;-53
2022/05/07 09:23:04;;;;;;;;;;;;;;;-143.79;100.00;62634.88;5072957;28;19924;-51
2022/05/07 09:25:30;;;;;;;;;;;22.20;88.90;;;-143.79;100.00;62634.88;5072891;28;20363;-54
2022/05/07 09:27:58;;;;;;;;;;;22.30;88.90;;;-143.79;100.00;62634.88;5072977;28;20406;-53
2022/05/07 09:30:26;;;;;;;;;;;22.30;88.90;;;-143.79;100.00;62634.88;5072791;28;19920;-52
2022/05/07 09:32:53;;;;;;;;;;;;;;;-143.79;100.00;62634.88;5072815;28;19916;-51
2022/05/07 09:38:05;;;;;;;;;;;22.30;88.90;;;-143.79;100.00;62634.88;5072849;28;19971;-56
2022/05/07 09:40:32;;;;;;;;;;;22.50;89.30;;;-143.79;100.00;62634.88;5054929;28;20402;-56
2022/05/07 09:42:58;;;;;;;;;;;22.40;89.70;;;-143.79;100.00;62634.88;5072895;28;19917;-56
2022/05/07 09:45:27;;;;;;;;;;;22.40;88.10;;;-143.79;100.00;62634.88;5072967;28;19916;-53
2022/05/07 09:47:58;;;;;;;;;;;;;;;-143.79;100.00;62634.88;5072922;28;19921;-53
2022/05/07 09:50:43;;;;;;;;;;;;;;;-143.79;100.00;62634.88;5072896;28;19916;-54
2022/05/07 09:58:40;;;;;;;;;;;22.60;91.80;;;-143.79;100.00;62634.88;5072581;28;19962;-56
2022/05/07 10:01:21;;;;;;;;;;;22.60;91.30;;;-143.79;100.00;62634.88;5072801;28;19939;-56
2022/05/07 10:03:53;;;;;;;;;;;;;;;-143.79;100.00;62634.88;5072807;28;19923;-54
2022/05/07 10:06:39;;;;;;;;;;;;;;;-143.79;100.00;62634.88;5072740;28;20011;-54
2022/05/07 10:09:24;;;;;;;;;;;;;;;-143.79;100.00;62634.88;5072070;28;19924;-55
2022/05/07 10:11:54;;;;;;;;;;;22.60;88.20;;;-143.79;100.00;62634.88;5072428;28;19924;-55
2022/05/07 10:14:23;;;;;;;;;;;;;;;-143.79;100.00;62634.88;5072500;28;20356;-55
2022/05/07 10:16:55;;;;;;;;;;;;;;;-143.79;100.00;62634.88;5072505;28;20339;-54
2022/05/07 10:19:31;;;;;;;;;;;;;;;-143.79;100.00;62634.88;5072610;28;20021;-55
2022/05/07 10:21:57;;;;;;;;;;;;;;;-143.79;100.00;62634.88;5072526;28;19917;-53
2022/05/07 10:24:23;;;;;;;;;;;;;;;-143.79;100.00;62634.88;5072497;28;19995;-55
2022/05/07 10:26:49;;;;;;;;;;;;;;;-143.79;100.00;62634.88;5072446;28;19912;-54
2022/05/07 10:29:20;;;;;;;;;;;;;;;-143.79;100.00;62634.88;5072413;28;19922;-53
2022/05/07 10:31:46;;;;;;;;;;;22.60;89.70;;;-143.79;100.00;62634.88;5072635;28;20337;-55
2022/05/07 10:34:23;;;;;;;;;;;22.60;89.70;;;-143.79;100.00;62634.88;5072325;28;19920;-51
2022/05/07 10:36:58;;;;;;;;;;;;;;;-143.79;100.00;62634.88;5072691;28;19959;-55
2022/05/07 10:39:24;;;;;;;;;;;;;;;-143.79;100.00;62634.88;5072211;28;19925;-55
2022/05/07 10:41:50;;;;;;;;;;;22.60;89.20;;;-143.79;100.00;62634.88;5057351;28;20394;-54
2022/05/07 10:44:34;;;;;;;;;;;22.60;89.20;;;-143.79;100.00;62634.88;5076226;28;19981;-53
2022/05/07 10:47:13;;;;;;;;;;;22.60;88.50;;;-143.79;100.00;62634.88;5076283;28;19969;-53
2022/05/07 10:49:58;;;;;;;;;;;;;;;-143.79;100.00;62634.88;5076506;28;19921;-55
2022/05/07 10:52:33;;;;;;;;;;;22.60;88.80;;;-143.79;100.00;62634.88;5076080;28;19919;-54
2022/05/07 10:55:08;;;;;;;;;;;;;;;-143.79;100.00;62634.88;5076094;28;19917;-52
2022/05/07 10:57:56;;;;;;;;;;;22.50;89.00;;;-143.79;100.00;62634.88;5076161;28;19916;-52
2022/05/07 11:00:23;;;;;;;;;;;22.50;89.00;;;-143.79;100.00;62634.88;5075999;28;19920;-52
2022/05/07 11:02:56;;;;;;;;;;;22.50;88.70;;;-143.79;100.00;62634.88;5075894;28;19917;-53
2022/05/07 11:05:32;;;;;;;;;;;;;;;-143.79;100.00;62634.88;5075973;28;20007;-56
2022/05/07 11:08:02;;;;;;;;;;;22.50;87.60;;;-143.79;100.00;62634.88;5076107;28;19924;-54
2022/05/07 11:10:28;;;;;;;;;;;22.50;88.30;;;-143.79;100.00;62634.88;5075767;28;19924;-52
2022/05/07 11:13:05;;;;;;;;;;;22.40;88.80;;;-143.79;100.00;62634.88;5075792;28;20375;-55
2022/05/07 11:15:31;;;;;;;;;;;;;;;-143.79;100.00;62634.88;5076026;28;19997;-54
2022/05/07 11:17:56;;;;;;;;;;;22.50;88.90;;;-143.79;100.00;62634.88;5076033;28;20278;-55
2022/05/07 11:20:32;;;;;;;;;;;22.50;88.80;;;-143.79;100.00;62634.88;5057715;28;19961;-55
2022/05/07 11:22:59;;;;;;;;;;;22.40;86.20;;;-143.79;100.00;62634.88;5075548;28;20009;-54
2022/05/07 11:25:25;;;;;;;;;;;;;;;-143.79;100.00;62634.88;5075700;28;20267;-54
2022/05/07 11:27:51;;;;;;;;;;;;;;;-143.79;100.00;62634.88;5075466;28;20033;-54
2022/05/07 11:30:17;;;;;;;;;;;;;;;-143.79;100.00;62634.88;5057621;28;19924;-54
2022/05/07 11:32:44;;;;;;;;;;;;;;;-143.79;100.00;62634.88;5075256;28;19932;-56
2022/05/07 11:35:10;;;;;;;;;;;;;;;-143.79;100.00;62634.88;5075551;28;20259;-54
2022/05/07 11:37:42;;;;;;;;;;;;;;;-143.79;100.00;62634.88;5075062;28;19926;-53
2022/05/07 11:40:10;;;;;;;;;;;22.40;88.90;;;-143.79;100.00;62634.88;5075091;28;19939;-53
2022/05/07 11:42:38;;;;;;;;;;;;;;;-143.79;100.00;62634.88;5075236;28;19982;-55
2022/05/07 11:45:26;;;;;;;;;;;22.40;89.10;;;-143.79;100.00;62634.88;5075147;28;19916;-56
2022/05/07 11:47:53;;;;;;;;;;;22.40;89.00;;;-143.79;100.00;62634.88;5059119;28;20446;-55
2022/05/07 11:50:23;;;;;;;;;;;;;;;-143.79;100.00;62634.88;5075358;28;19963;-55
2022/05/07 11:52:50;;;;;;;;;;;;;;;-143.79;100.00;62634.88;5073943;28;19952;-55
2022/05/07 11:55:19;;;;;;;;;;;22.40;88.50;;;-143.79;100.00;62634.88;5075059;28;19923;-54
2022/05/07 11:57:46;;;;;;;;;;;22.40;88.90;;;-143.79;100.00;62634.88;5074973;28;20459;-57
2022/05/07 12:00:21;;;;;;;;;;;22.40;88.80;;;-143.79;100.00;62634.88;5074788;28;20318;-56
2022/05/07 12:02:53;;;;;;;;;;;;;;;-143.79;100.00;62634.88;5074920;28;20355;-56
2022/05/07 12:05:19;;;;;;;;;;;;;;;-143.79;100.00;62634.88;5074680;28;20007;-56
2022/05/07 12:07:47;;;;;;;;;;;;;;;-143.79;100.00;62634.88;5074677;28;19924;-56
2022/05/07 12:10:12;;;;;;;;;;;22.30;88.90;;;-143.79;100.00;62634.88;5074594;28;20370;-57
2022/05/07 12:12:38;;;;;;;;;;;22.30;88.90;;;-143.79;100.00;62634.88;5074659;28;19923;-57
2022/05/07 12:15:05;;;;;;;;;;;;;;;-143.79;100.00;62634.88;5074598;28;19920;-57
2022/05/07 12:20:16;;;;;;;;;;;22.30;89.20;;;-143.79;100.00;62634.88;5074467;28;20333;-55